Terminal Aerodrome Forecast
Issued by NWS

Home | Current Version | Previous Version | Text Only | Print | Product List | Glossary On
Versions: 1 2 3 4 5 6 7 8 9 10 11 12 13 14 15 16 17 18 19 20 21 22 23 24 25 26
000
FTUS44 KHGX 241416 AAA
TAFLBX
TAF AMD
KLBX 241416Z 2414/2512 17012KT P6SM BKN012 OVC020
     FM241500 17012KT P6SM VCTS SCT015 BKN020CB
      TEMPO 2415/2417 VRB10G18KT 4SM -TSRA BKN015CB
     FM241700 17012KT P6SM SCT030 SCT250
     FM250300 17009KT 5SM BR SCT040
     FM250700 00000KT 1SM BR SCT007=

USA.gov is the U.S. government's official web portal to all federal, state and local government web resources and services.